Accueil
METAR-TAF:

METAR-TAF

Aéroports :

Ranchi, Inde

latitude: 23-18-51N, longitude: 85-19-18E, altitude: 646 m

Observation

Le bulletin a été fait il y a 32 minutes, à 00:00 UTC
Vent calme
Température 15°C
Humidité 88%
Pression 1017 hPa
Visibilité: 2000 m
Nuages épars à une hauteur de 1800 ft
Nuages fragmentés à une hauteur de 10000 ft
brume

METAR: VERC 230000Z 00000KT 2000 BR SCT018 BKN100 15/13 Q1017 NOSIG

Heure: 06:02 (00:32 UTC)

Prévision

Le bulletin a été fait il y a 1 heure et 32 minutes, à 23:00 UTC
Prévision valable du 23 à 00 UTC au 23 à 09 UTC
Vent kt de nord
Visibilité: 1500 m
brume
Evoluant progressivement
du 23 à 04 UTC au 23 à 06 UTC
Vent 5 kt de ouest/nord-ouest
Visibilité: 4000 m
brume sèche
Evoluant progressivement
du 23 à 07 UTC au 23 à 08 UTC
Visibilité: 6000 m

TAF: VERC 222300Z 2300/2309 00000KT 1500 BR NSC BECMG 2304/2306 29005KT 4000 HZ BECMG 2307/2308 6000

Observations et prévisions météorologiques de plus de 4000 aéroports (messages METAR et TAF).

Les stations disponibles sont représentées par des disques jaunes et rouges sur la carte.

Passer la souris dessus pour voir le nom de la station.

Cliquer dessus pour voir les observations et prévisions météorologiques.

Pour changer de carte: cliquez sur les boutons verts avec une croix noire pour zoomer, sur le bouton vert avec un tiret pour effectuer un zoom arrière, ou sur les flèches vertes pour les cartes adjacentes.


METAR-TAF: